This demonstration page uses our WeatherBlox Daily Observations layout. Learn more.

38.80484, -77.04692

Hourly Observations for July 12, 2020

Temp ( °F °C ) Dew Point ( °F °C ) Humidity (%) Winds ( mph kmh ) Pressure ( in mb ) Visibility ( mi km ) Precip ( " mm )
12:52 am 00:52 Partly Cloudy 80 26.7 60 15.6 51 51 W 8 13 29.79 1009 10 16.0934 0 0
1:52 am 01:52 Mostly Clear 79 26.1 59 15 50 50 W 8 13 29.79 1009 10 16.0934 0 0
2:52 am 02:52 Mostly Clear 77 25 59 15 54 54 WSW 6 9 29.78 1008 10 16.0934 0 0
3:52 am 03:52 Mostly Clear 74 23.3 59 15 60 60 WSW 6 9 29.76 1008 10 16.0934 0 0
4:52 am 04:52 Mostly Clear 76 24.4 59 15 56 56 Calm 29.77 1008 10 16.0934 0 0
5:52 am 05:52 Mostly Clear 74 23.3 61 16.1 64 64 S 5 7 29.78 1008 10 16.0934 0 0
6:52 am 06:52 Mostly Sunny 74 23.3 62 16.7 67 67 SSW 6 9 29.8 1009 10 16.0934 0 0
7:52 am 07:52 Mostly Sunny 77 25 62 16.7 60 60 S 3 6 29.8 1009 10 16.0934 0 0
8:52 am 08:52 Mostly Sunny 80 26.7 66 18.9 62 62 S 7 11 29.81 1010 10 16.0934 0 0
9:52 am 09:52 Mostly Sunny 82 27.8 66 18.9 58 58 SSE 5 7 29.81 1010 10 16.0934 0 0
10:52 am 10:52 Partly Cloudy 84 28.9 67 19.4 57 57 S 9 15 29.81 1009 10 16.0934 0 0
11:52 am 11:52 Mostly Sunny 88 31.1 64 17.8 45 45 S 12 19 29.8 1009 10 16.0934 0 0
12:52 pm 12:52 Partly Cloudy 89 31.7 66 18.9 47 47 S 12 19 29.78 1009 10 16.0934 0 0
1:52 pm 13:52 Partly Cloudy 89 31.7 65 18.3 45 45 S 10 17 29.77 1008 10 16.0934 0 0
2:52 pm 14:52 Mostly Cloudy 87 30.6 66 18.9 50 50 S 10 17 29.76 1008 10 16.0934 0 0
3:52 pm 15:52 Mostly Cloudy 87 30.6 68 20 53 53 SE 9 15 29.74 1007 10 16.0934 0 0
4:52 pm 16:52 Mostly Cloudy 86 30 69 20.6 57 57 SSE 8 13 29.73 1007 10 16.0934 0 0
5:52 pm 17:52 Mostly Cloudy with Light Rain 85 29.4 67 19.4 55 55 S 10 17 29.72 1007 10 16.0934 0.001 0.001
6:52 pm 18:52 Mostly Cloudy 86 30 68 20 55 55 S 9 15 29.72 1007 10 16.0934 0.001 0.001
7:52 pm 19:52 Cloudy 83 28.3 66 18.9 57 57 WNW 13 20 29.75 1008 10 16.0934 0 0
7:54 pm 19:54 Cloudy 83 28.3 66 18.9 57 57 W 13 20 29.76 1008 10 16.0934 0 0
8:52 pm 20:52 Mostly Cloudy 81 27.2 67 19.4 62 62 WNW 5 7 29.77 1008 10 16.0934 0 0
9:52 pm 21:52 Mostly Cloudy 80 26.7 66 18.9 62 62 SW 10 17 29.8 1009 10 16.0934 0 0
10:52 pm 22:52 Cloudy with Light Rain 76 24.4 68 20 77 77 SW 8 13 29.8 1009 10 16.0934 0.01 0.254
11:52 pm 23:52 Mostly Cloudy 76 24.4 68 20 77 77 WNW 6 9 29.8 1009 10 16.0934 0.001 0.001

Powered by AerisWeather